sensor_id;sensor_type;location;lat;lon;timestamp;pressure;altitude;pressure_sealevel;temperature;humidity
55263;BME280;41125;48.752;9.168;2023-08-06T00:00:22;96159.66;;;14.63;100.00
55263;BME280;41125;48.752;9.168;2023-08-06T00:00:53;96162.72;;;14.62;100.00
55263;BME280;41125;48.752;9.168;2023-08-06T00:01:24;96161.94;;;14.61;100.00
55263;BME280;41125;48.752;9.168;2023-08-06T00:01:56;96163.84;;;14.61;100.00
55263;BME280;41125;48.752;9.168;2023-08-06T00:02:32;96160.66;;;14.59;100.00
55263;BME280;41125;48.752;9.168;2023-08-06T00:03:03;96161.47;;;14.59;100.00
55263;BME280;41125;48.752;9.168;2023-08-06T00:03:35;96148.94;;;14.58;100.00
55263;BME280;41125;48.752;9.168;2023-08-06T00:04:07;96159.87;;;14.58;100.00
55263;BME280;41125;48.752;9.168;2023-08-06T00:04:39;96161.47;;;14.59;100.00
55263;BME280;41125;48.752;9.168;2023-08-06T00:05:11;96159.87;;;14.58;100.00
55263;BME280;41125;48.752;9.168;2023-08-06T00:05:42;96158.28;;;14.57;100.00
55263;BME280;41125;48.752;9.168;2023-08-06T00:06:19;96154.31;;;14.55;100.00
55263;BME280;41125;48.752;9.168;2023-08-06T00:06:51;96154.63;;;14.53;100.00
55263;BME280;41125;48.752;9.168;2023-08-06T00:07:23;96148.59;;;14.48;100.00
55263;BME280;41125;48.752;9.168;2023-08-06T00:07:54;96151.19;;;14.44;100.00
55263;BME280;41125;48.752;9.168;2023-08-06T00:08:25;96149.12;;;14.41;100.00
55263;BME280;41125;48.752;9.168;2023-08-06T00:08:59;96154.88;;;14.39;100.00
55263;BME280;41125;48.752;9.168;2023-08-06T00:09:32;96152.97;;;14.40;100.00
55263;BME280;41125;48.752;9.168;2023-08-06T00:10:05;96154.44;;;14.37;100.00
55263;BME280;41125;48.752;9.168;2023-08-06T00:10:36;96155.88;;;14.35;100.00
55263;BME280;41125;48.752;9.168;2023-08-06T00:11:07;96156.56;;;14.32;100.00
55263;BME280;41125;48.752;9.168;2023-08-06T00:11:39;96151.09;;;14.32;100.00
55263;BME280;41125;48.752;9.168;2023-08-06T00:12:12;96156.56;;;14.32;100.00
55263;BME280;41125;48.752;9.168;2023-08-06T00:12:44;96148.69;;;14.30;100.00
55263;BME280;41125;48.752;9.168;2023-08-06T00:13:15;96151.75;;;14.29;100.00
55263;BME280;41125;48.752;9.168;2023-08-06T00:13:46;96147.44;;;14.28;100.00
55263;BME280;41125;48.752;9.168;2023-08-06T00:14:18;96142.31;;;14.26;100.00
55263;BME280;41125;48.752;9.168;2023-08-06T00:14:51;96143.09;;;14.27;100.00
55263;BME280;41125;48.752;9.168;2023-08-06T00:15:23;96143.09;;;14.27;100.00
55263;BME280;41125;48.752;9.168;2023-08-06T00:15:54;96146.97;;;14.26;100.00
55263;BME280;41125;48.752;9.168;2023-08-06T00:16:26;96139.91;;;14.25;100.00
55263;BME280;41125;48.752;9.168;2023-08-06T00:16:57;96144.56;;;14.24;100.00
55263;BME280;41125;48.752;9.168;2023-08-06T00:17:29;96144.91;;;14.23;100.00
55263;BME280;41125;48.752;9.168;2023-08-06T00:18:00;96144.91;;;14.23;100.00
55263;BME280;41125;48.752;9.168;2023-08-06T00:18:32;96141.03;;;14.24;100.00
55263;BME280;41125;48.752;9.168;2023-08-06T00:19:03;96150.84;;;14.25;100.00
55263;BME280;41125;48.752;9.168;2023-08-06T00:19:34;96150.03;;;14.24;100.00
55263;BME280;41125;48.752;9.168;2023-08-06T00:20:09;96149.91;;;14.21;100.00
55263;BME280;41125;48.752;9.168;2023-08-06T00:20:41;96151.37;;;14.18;100.00
55263;BME280;41125;48.752;9.168;2023-08-06T00:21:12;96149.78;;;14.17;100.00
55263;BME280;41125;48.752;9.168;2023-08-06T00:21:44;96155.12;;;14.14;100.00
55263;BME280;41125;48.752;9.168;2023-08-06T00:22:15;96149.19;;;14.12;100.00
55263;BME280;41125;48.752;9.168;2023-08-06T00:22:47;96143.72;;;14.12;100.00
55263;BME280;41125;48.752;9.168;2023-08-06T00:23:19;96150.31;;;14.11;100.00
55263;BME280;41125;48.752;9.168;2023-08-06T00:23:52;96154.19;;;14.09;100.00
55263;BME280;41125;48.752;9.168;2023-08-06T00:24:24;96145.53;;;14.07;100.00
55263;BME280;41125;48.752;9.168;2023-08-06T00:24:58;96146.19;;;14.04;100.00
55263;BME280;41125;48.752;9.168;2023-08-06T00:25:30;96149.72;;;14.05;100.00
55263;BME280;41125;48.752;9.168;2023-08-06T00:26:01;96148.91;;;14.04;100.00
55263;BME280;41125;48.752;9.168;2023-08-06T00:26:32;96154.03;;;14.06;100.00
55263;BME280;41125;48.752;9.168;2023-08-06T00:27:04;96149.38;;;14.06;100.00
55263;BME280;41125;48.752;9.168;2023-08-06T00:27:37;96151.66;;;14.04;100.00
55263;BME280;41125;48.752;9.168;2023-08-06T00:28:12;96153.25;;;14.05;100.00
55263;BME280;41125;48.752;9.168;2023-08-06T00:28:45;96157.09;;;14.04;100.00
55263;BME280;41125;48.752;9.168;2023-08-06T00:29:17;96150.84;;;14.04;100.00
55263;BME280;41125;48.752;9.168;2023-08-06T00:29:52;96152.78;;;14.03;100.00
55263;BME280;41125;48.752;9.168;2023-08-06T00:30:23;96149.25;;;14.03;100.00
55263;BME280;41125;48.752;9.168;2023-08-06T00:30:59;96150.72;;;14.00;100.00
55263;BME280;41125;48.752;9.168;2023-08-06T00:31:31;96152.31;;;14.01;100.00
55263;BME280;41125;48.752;9.168;2023-08-06T00:32:03;96152.31;;;14.01;100.00
55263;BME280;41125;48.752;9.168;2023-08-06T00:32:34;96148.47;;;14.02;100.00
55263;BME280;41125;48.752;9.168;2023-08-06T00:33:05;96149.25;;;14.03;100.00
55263;BME280;41125;48.752;9.168;2023-08-06T00:33:37;96149.25;;;14.03;100.00
55263;BME280;41125;48.752;9.168;2023-08-06T00:34:09;96145.72;;;14.02;100.00
55263;BME280;41125;48.752;9.168;2023-08-06T00:34:41;96149.12;;;13.99;100.00
55263;BME280;41125;48.752;9.168;2023-08-06T00:35:13;96143.19;;;13.97;100.00
55263;BME280;41125;48.752;9.168;2023-08-06T00:35:44;96142.06;;;13.98;100.00
55263;BME280;41125;48.752;9.168;2023-08-06T00:36:18;96138.53;;;13.98;100.00
55263;BME280;41125;48.752;9.168;2023-08-06T00:36:50;96145.91;;;13.97;100.00
55263;BME280;41125;48.752;9.168;2023-08-06T00:37:21;96144.00;;;13.98;100.00
55263;BME280;41125;48.752;9.168;2023-08-06T00:37:53;96142.72;;;13.95;100.00
55263;BME280;41125;48.752;9.168;2023-08-06T00:38:29;96134.06;;;13.93;100.00
55263;BME280;41125;48.752;9.168;2023-08-06T00:39:00;96142.25;;;13.93;100.00
55263;BME280;41125;48.752;9.168;2023-08-06T00:39:31;96142.72;;;13.95;100.00
55263;BME280;41125;48.752;9.168;2023-08-06T00:40:06;96140.47;;;13.97;100.00
55263;BME280;41125;48.752;9.168;2023-08-06T00:40:37;96140.47;;;13.97;100.00
55263;BME280;41125;48.752;9.168;2023-08-06T00:41:09;96142.41;;;13.97;100.00
55263;BME280;41125;48.752;9.168;2023-08-06T00:41:40;96135.00;;;13.97;100.00
55263;BME280;41125;48.752;9.168;2023-08-06T00:42:12;96142.41;;;13.97;100.00
55263;BME280;41125;48.752;9.168;2023-08-06T00:42:43;96144.31;;;13.96;100.00
55263;BME280;41125;48.752;9.168;2023-08-06T00:43:15;96142.72;;;13.95;100.00
55263;BME280;41125;48.752;9.168;2023-08-06T00:43:47;96140.00;;;13.95;100.00
55263;BME280;41125;48.752;9.168;2023-08-06T00:44:18;96142.06;;;13.98;100.00
55263;BME280;41125;48.752;9.168;2023-08-06T00:44:49;96138.22;;;13.99;100.00
55263;BME280;41125;48.752;9.168;2023-08-06T00:45:21;96139.81;;;14.00;100.00
55263;BME280;41125;48.752;9.168;2023-08-06T00:45:53;96134.69;;;13.99;100.00
55263;BME280;41125;48.752;9.168;2023-08-06T00:46:26;96133.56;;;14.00;100.00
55263;BME280;41125;48.752;9.168;2023-08-06T00:46:57;96135.94;;;14.01;100.00
55263;BME280;41125;48.752;9.168;2023-08-06T00:47:29;96134.03;;;14.02;100.00
55263;BME280;41125;48.752;9.168;2023-08-06T00:48:01;96142.19;;;14.02;100.00
55263;BME280;41125;48.752;9.168;2023-08-06T00:48:34;96134.47;;;14.04;100.00
55263;BME280;41125;48.752;9.168;2023-08-06T00:49:06;96138.00;;;14.04;100.00
55263;BME280;41125;48.752;9.168;2023-08-06T00:49:39;96134.47;;;14.04;100.00
55263;BME280;41125;48.752;9.168;2023-08-06T00:50:10;96135.28;;;14.04;100.00
55263;BME280;41125;48.752;9.168;2023-08-06T00:50:45;96139.94;;;14.04;100.00
55263;BME280;41125;48.752;9.168;2023-08-06T00:51:17;96132.09;;;14.02;100.00
55263;BME280;41125;48.752;9.168;2023-08-06T00:51:52;96132.09;;;14.02;100.00
55263;BME280;41125;48.752;9.168;2023-08-06T00:52:23;96134.47;;;14.04;100.00
55263;BME280;41125;48.752;9.168;2023-08-06T00:52:55;96134.16;;;14.05;100.00
55263;BME280;41125;48.752;9.168;2023-08-06T00:53:28;96138.47;;;14.06;100.00
55263;BME280;41125;48.752;9.168;2023-08-06T00:53:59;96128.37;;;14.07;100.00
55263;BME280;41125;48.752;9.168;2023-08-06T00:54:32;96126.09;;;14.09;100.00
55263;BME280;41125;48.752;9.168;2023-08-06T00:55:04;96122.25;;;14.10;100.00
55263;BME280;41125;48.752;9.168;2023-08-06T00:55:37;96121.91;;;14.12;100.00
55263;BME280;41125;48.752;9.168;2023-08-06T00:56:09;96131.22;;;14.11;100.00
55263;BME280;41125;48.752;9.168;2023-08-06T00:56:42;96119.84;;;14.08;100.00
55263;BME280;41125;48.752;9.168;2023-08-06T00:57:14;96127.56;;;14.06;100.00
55263;BME280;41125;48.752;9.168;2023-08-06T00:57:46;96120.50;;;14.05;100.00
55263;BME280;41125;48.752;9.168;2023-08-06T00:58:18;96116.00;;;14.09;100.00
55263;BME280;41125;48.752;9.168;2023-08-06T00:58:50;96121.44;;;14.09;100.00
55263;BME280;41125;48.752;9.168;2023-08-06T00:59:23;96124.19;;;14.09;100.00
55263;BME280;41125;48.752;9.168;2023-08-06T00:59:55;96120.31;;;14.11;100.00
55263;BME280;41125;48.752;9.168;2023-08-06T01:00:27;96118.72;;;14.09;100.00
55263;BME280;41125;48.752;9.168;2023-08-06T01:01:00;96118.25;;;14.07;100.00
55263;BME280;41125;48.752;9.168;2023-08-06T01:01:33;96120.50;;;14.05;100.00
55263;BME280;41125;48.752;9.168;2023-08-06T01:02:05;96119.72;;;14.05;100.00
55263;BME280;41125;48.752;9.168;2023-08-06T01:02:37;96118.12;;;14.04;100.00
55263;BME280;41125;48.752;9.168;2023-08-06T01:03:08;96113.00;;;14.02;100.00
55263;BME280;41125;48.752;9.168;2023-08-06T01:03:42;96110.94;;;13.99;100.00
55263;BME280;41125;48.752;9.168;2023-08-06T01:04:13;96124.09;;;13.97;100.00
55263;BME280;41125;48.752;9.168;2023-08-06T01:04:45;96119.31;;;13.94;100.00
55263;BME280;41125;48.752;9.168;2023-08-06T01:05:16;96117.38;;;13.95;100.00
55263;BME280;41125;48.752;9.168;2023-08-06T01:05:49;96117.06;;;13.96;100.00
55263;BME280;41125;48.752;9.168;2023-08-06T01:07:51;96119.13;;;13.99;100.00
55263;BME280;41125;48.752;9.168;2023-08-06T01:09:18;96117.06;;;13.96;100.00
55263;BME280;41125;48.752;9.168;2023-08-06T01:12:39;96121.44;;;13.89;99.45
55263;BME280;41125;48.752;9.168;2023-08-06T01:13:47;96120.63;;;13.88;99.51
55263;BME280;41125;48.752;9.168;2023-08-06T01:14:35;96119.03;;;13.87;98.97
55263;BME280;41125;48.752;9.168;2023-08-06T01:15:19;96118.59;;;13.85;98.45
55263;BME280;41125;48.752;9.168;2023-08-06T01:15:55;96114.94;;;13.81;97.55
55263;BME280;41125;48.752;9.168;2023-08-06T01:16:30;96114.94;;;13.81;97.74
55263;BME280;41125;48.752;9.168;2023-08-06T01:17:04;96122.00;;;13.82;98.11
55263;BME280;41125;48.752;9.168;2023-08-06T01:17:36;96117.34;;;13.83;98.18
55263;BME280;41125;48.752;9.168;2023-08-06T01:18:09;96114.94;;;13.81;97.77
55263;BME280;41125;48.752;9.168;2023-08-06T01:18:42;96120.72;;;13.80;97.68
55263;BME280;41125;48.752;9.168;2023-08-06T01:19:18;96108.69;;;13.81;98.08
55263;BME280;41125;48.752;9.168;2023-08-06T01:19:49;96120.38;;;13.81;97.91
55263;BME280;41125;48.752;9.168;2023-08-06T01:20:21;96109.50;;;13.81;97.88
55263;BME280;41125;48.752;9.168;2023-08-06T01:20:52;96121.19;;;13.82;97.76
55263;BME280;41125;48.752;9.168;2023-08-06T01:21:24;96116.06;;;13.80;97.81
55263;BME280;41125;48.752;9.168;2023-08-06T01:21:56;96116.06;;;13.80;97.93
55263;BME280;41125;48.752;9.168;2023-08-06T01:22:27;96116.88;;;13.81;97.78
55263;BME280;41125;48.752;9.168;2023-08-06T01:22:59;96112.69;;;13.83;97.65
55263;BME280;41125;48.752;9.168;2023-08-06T01:23:30;96110.41;;;13.85;97.22
55263;BME280;41125;48.752;9.168;2023-08-06T01:24:02;96115.88;;;13.85;97.24
55263;BME280;41125;48.752;9.168;2023-08-06T01:24:34;96112.22;;;13.81;97.27
55263;BME280;41125;48.752;9.168;2023-08-06T01:25:07;96112.22;;;13.81;96.96
55263;BME280;41125;48.752;9.168;2023-08-06T01:25:56;96118.47;;;13.82;97.60
55263;BME280;41125;48.752;9.168;2023-08-06T01:26:40;96110.41;;;13.85;98.31
55263;BME280;41125;48.752;9.168;2023-08-06T01:27:32;96113.59;;;13.87;98.01
55263;BME280;41125;48.752;9.168;2023-08-06T01:28:14;96111.22;;;13.86;97.41
55263;BME280;41125;48.752;9.168;2023-08-06T01:29:17;96107.56;;;13.82;97.48
55263;BME280;41125;48.752;9.168;2023-08-06T01:30:25;96107.34;;;13.87;96.65
55263;BME280;41125;48.752;9.168;2023-08-06T01:31:01;96105.06;;;13.89;96.72
55263;BME280;41125;48.752;9.168;2023-08-06T01:31:39;96113.59;;;13.87;97.04
55263;BME280;41125;48.752;9.168;2023-08-06T01:32:14;96097.69;;;13.89;97.13
55263;BME280;41125;48.752;9.168;2023-08-06T01:32:52;96110.66;;;13.92;96.78
55263;BME280;41125;48.752;9.168;2023-08-06T01:33:26;96104.06;;;13.93;97.53
55263;BME280;41125;48.752;9.168;2023-08-06T01:33:59;96108.41;;;13.94;97.45
55263;BME280;41125;48.752;9.168;2023-08-06T01:34:34;96100.69;;;13.96;96.86
55263;BME280;41125;48.752;9.168;2023-08-06T01:35:07;96102.28;;;13.97;96.16
55263;BME280;41125;48.752;9.168;2023-08-06T01:35:39;96101.47;;;13.97;95.94
55263;BME280;41125;48.752;9.168;2023-08-06T01:36:11;96105.81;;;13.98;96.17
55263;BME280;41125;48.752;9.168;2023-08-06T01:36:43;96106.94;;;13.97;96.29
55263;BME280;41125;48.752;9.168;2023-08-06T01:37:16;96108.06;;;13.96;96.45
55263;BME280;41125;48.752;9.168;2023-08-06T01:37:48;96101.69;;;13.92;96.25
55263;BME280;41125;48.752;9.168;2023-08-06T01:38:20;96100.88;;;13.91;95.41
55263;BME280;41125;48.752;9.168;2023-08-06T01:38:53;96106.81;;;13.93;95.75
55263;BME280;41125;48.752;9.168;2023-08-06T01:39:28;96097.50;;;13.94;95.45
55263;BME280;41125;48.752;9.168;2023-08-06T01:40:00;96103.75;;;13.95;95.35
55263;BME280;41125;48.752;9.168;2023-08-06T01:40:31;96102.94;;;13.94;95.45
55263;BME280;41125;48.752;9.168;2023-08-06T01:41:05;96108.25;;;13.91;95.60
55263;BME280;41125;48.752;9.168;2023-08-06T01:41:36;96102.81;;;13.91;95.66
55263;BME280;41125;48.752;9.168;2023-08-06T01:42:09;96101.34;;;13.93;96.15
55263;BME280;41125;48.752;9.168;2023-08-06T01:42:40;96105.22;;;13.92;95.73
55263;BME280;41125;48.752;9.168;2023-08-06T01:43:11;96106.00;;;13.93;95.87
55263;BME280;41125;48.752;9.168;2023-08-06T01:43:46;96099.75;;;13.92;96.05
55263;BME280;41125;48.752;9.168;2023-08-06T01:44:19;96105.87;;;13.89;95.85
55263;BME280;41125;48.752;9.168;2023-08-06T01:44:50;96105.06;;;13.89;95.87
55263;BME280;41125;48.752;9.168;2023-08-06T01:45:23;96104.59;;;13.87;95.47
55263;BME280;41125;48.752;9.168;2023-08-06T01:45:57;96108.50;;;13.86;95.31
55263;BME280;41125;48.752;9.168;2023-08-06T01:46:29;96099.50;;;13.85;96.02
55263;BME280;41125;48.752;9.168;2023-08-06T01:47:00;96093.25;;;13.85;95.84
55263;BME280;41125;48.752;9.168;2023-08-06T01:47:32;96094.16;;;13.89;95.63
55263;BME280;41125;48.752;9.168;2023-08-06T01:48:03;96091.78;;;13.87;95.54
55263;BME280;41125;48.752;9.168;2023-08-06T01:48:35;96093.38;;;13.88;95.60
55263;BME280;41125;48.752;9.168;2023-08-06T01:49:06;96098.03;;;13.88;95.65
55263;BME280;41125;48.752;9.168;2023-08-06T01:49:41;96093.84;;;13.90;95.68
55263;BME280;41125;48.752;9.168;2023-08-06T01:50:12;96094.31;;;13.92;96.02
55263;BME280;41125;48.752;9.168;2023-08-06T01:50:48;96090.44;;;13.93;96.05
55263;BME280;41125;48.752;9.168;2023-08-06T01:51:19;96090.91;;;13.95;96.15
55263;BME280;41125;48.752;9.168;2023-08-06T01:51:51;96096.38;;;13.95;95.55
55263;BME280;41125;48.752;9.168;2023-08-06T01:52:22;96091.37;;;13.97;94.83
55263;BME280;41125;48.752;9.168;2023-08-06T01:52:53;96097.75;;;14.01;95.20
55263;BME280;41125;48.752;9.168;2023-08-06T01:53:25;96092.78;;;14.03;95.05
55263;BME280;41125;48.752;9.168;2023-08-06T01:53:57;96093.91;;;14.02;94.87
55263;BME280;41125;48.752;9.168;2023-08-06T01:54:28;96091.66;;;14.04;94.91
55263;BME280;41125;48.752;9.168;2023-08-06T01:55:01;96090.03;;;14.03;94.87
55263;BME280;41125;48.752;9.168;2023-08-06T01:55:36;96090.03;;;14.03;94.83
55263;BME280;41125;48.752;9.168;2023-08-06T01:56:07;96099.34;;;14.02;94.70
55263;BME280;41125;48.752;9.168;2023-08-06T01:56:38;96093.91;;;14.02;94.61
55263;BME280;41125;48.752;9.168;2023-08-06T01:57:13;96095.50;;;14.03;94.96
55263;BME280;41125;48.752;9.168;2023-08-06T01:57:44;96092.31;;;14.01;94.56
55263;BME280;41125;48.752;9.168;2023-08-06T01:58:16;96086.72;;;13.98;95.08
55263;BME280;41125;48.752;9.168;2023-08-06T01:58:47;96091.72;;;13.96;94.86
55263;BME280;41125;48.752;9.168;2023-08-06T01:59:18;96084.19;;;13.93;95.33
55263;BME280;41125;48.752;9.168;2023-08-06T01:59:49;96087.25;;;13.91;95.84
55263;BME280;41125;48.752;9.168;2023-08-06T02:00:21;96085.66;;;13.90;95.74
55263;BME280;41125;48.752;9.168;2023-08-06T02:00:52;96085.66;;;13.90;96.10
55263;BME280;41125;48.752;9.168;2023-08-06T02:01:23;96083.37;;;13.92;95.15
55263;BME280;41125;48.752;9.168;2023-08-06T02:01:54;96086.91;;;13.93;94.80
55263;BME280;41125;48.752;9.168;2023-08-06T02:02:26;96083.25;;;13.89;95.35
55263;BME280;41125;48.752;9.168;2023-08-06T02:02:57;96083.25;;;13.89;95.60
55263;BME280;41125;48.752;9.168;2023-08-06T02:03:29;96077.69;;;13.85;95.70
55263;BME280;41125;48.752;9.168;2023-08-06T02:04:00;96077.22;;;13.83;95.54
55263;BME280;41125;48.752;9.168;2023-08-06T02:04:32;96072.91;;;13.82;96.01
55263;BME280;41125;48.752;9.168;2023-08-06T02:05:05;96078.22;;;13.79;95.71
55263;BME280;41125;48.752;9.168;2023-08-06T02:05:36;96073.44;;;13.75;96.09
55263;BME280;41125;48.752;9.168;2023-08-06T02:06:08;96065.59;;;13.74;96.59
55263;BME280;41125;48.752;9.168;2023-08-06T02:06:40;96069.44;;;13.73;96.24
55263;BME280;41125;48.752;9.168;2023-08-06T02:07:12;96073.63;;;13.70;96.28
55263;BME280;41125;48.752;9.168;2023-08-06T02:07:45;96076.22;;;13.67;96.34
55263;BME280;41125;48.752;9.168;2023-08-06T02:08:17;96069.19;;;13.66;96.16
55263;BME280;41125;48.752;9.168;2023-08-06T02:08:48;96065.00;;;13.68;96.85
55263;BME280;41125;48.752;9.168;2023-08-06T02:09:21;96061.13;;;13.69;96.52
55263;BME280;41125;48.752;9.168;2023-08-06T02:09:52;96065.78;;;13.69;96.28
55263;BME280;41125;48.752;9.168;2023-08-06T02:10:23;96066.13;;;13.67;96.81
55263;BME280;41125;48.752;9.168;2023-08-06T02:10:55;96058.28;;;13.66;96.97
55263;BME280;41125;48.752;9.168;2023-08-06T02:11:26;96062.47;;;13.63;97.08
55263;BME280;41125;48.752;9.168;2023-08-06T02:11:57;96067.09;;;13.63;97.36
55263;BME280;41125;48.752;9.168;2023-08-06T02:12:32;96068.25;;;13.62;97.48
55263;BME280;41125;48.752;9.168;2023-08-06T02:13:06;96068.25;;;13.62;97.50
55263;BME280;41125;48.752;9.168;2023-08-06T02:13:37;96064.38;;;13.63;97.86
55263;BME280;41125;48.752;9.168;2023-08-06T02:14:08;96063.59;;;13.62;97.39
55263;BME280;41125;48.752;9.168;2023-08-06T02:14:40;96065.03;;;13.60;97.06
55263;BME280;41125;48.752;9.168;2023-08-06T02:15:11;96054.81;;;13.57;97.46
55263;BME280;41125;48.752;9.168;2023-08-06T02:15:44;96067.16;;;13.54;97.57
55263;BME280;41125;48.752;9.168;2023-08-06T02:16:16;96065.91;;;13.52;97.89
55263;BME280;41125;48.752;9.168;2023-08-06T02:16:48;96060.81;;;13.50;98.13
55263;BME280;41125;48.752;9.168;2023-08-06T02:17:25;96057.72;;;13.52;98.52
55263;BME280;41125;48.752;9.168;2023-08-06T02:17:56;96050.69;;;13.51;98.63
55263;BME280;41125;48.752;9.168;2023-08-06T02:18:28;96055.34;;;13.50;99.01
55263;BME280;41125;48.752;9.168;2023-08-06T02:18:59;96050.69;;;13.51;98.92
55263;BME280;41125;48.752;9.168;2023-08-06T02:19:30;96048.41;;;13.53;98.59
55263;BME280;41125;48.752;9.168;2023-08-06T02:20:02;96043.91;;;13.57;98.39
55263;BME280;41125;48.752;9.168;2023-08-06T02:20:34;96046.16;;;13.55;98.31
55263;BME280;41125;48.752;9.168;2023-08-06T02:21:05;96053.53;;;13.54;98.45
55263;BME280;41125;48.752;9.168;2023-08-06T02:21:37;96050.47;;;13.56;98.43
55263;BME280;41125;48.752;9.168;2023-08-06T02:22:08;96044.22;;;13.55;98.29
55263;BME280;41125;48.752;9.168;2023-08-06T02:22:43;96044.87;;;13.52;98.36
55263;BME280;41125;48.752;9.168;2023-08-06T02:23:15;96043.31;;;13.51;98.88
55263;BME280;41125;48.752;9.168;2023-08-06T02:23:48;96046.81;;;13.52;98.50
55263;BME280;41125;48.752;9.168;2023-08-06T02:24:19;96033.56;;;13.50;98.21
55263;BME280;41125;48.752;9.168;2023-08-06T02:24:50;96046.38;;;13.50;98.50
55263;BME280;41125;48.752;9.168;2023-08-06T02:25:21;96042.06;;;13.49;98.24
55263;BME280;41125;48.752;9.168;2023-08-06T02:26:00;96039.66;;;13.47;98.28
55263;BME280;41125;48.752;9.168;2023-08-06T02:26:35;96044.31;;;13.47;98.18
55263;BME280;41125;48.752;9.168;2023-08-06T02:27:06;96041.12;;;13.45;98.13
55263;BME280;41125;48.752;9.168;2023-08-06T02:27:38;96037.94;;;13.43;97.88
55263;BME280;41125;48.752;9.168;2023-08-06T02:28:09;96042.25;;;13.44;98.17
55263;BME280;41125;48.752;9.168;2023-08-06T02:28:40;96042.91;;;13.40;97.94
55263;BME280;41125;48.752;9.168;2023-08-06T02:29:15;96037.78;;;13.39;98.43
55263;BME280;41125;48.752;9.168;2023-08-06T02:29:47;96036.53;;;13.36;98.14
55263;BME280;41125;48.752;9.168;2023-08-06T02:30:18;96036.72;;;13.31;98.26
55263;BME280;41125;48.752;9.168;2023-08-06T02:30:50;96040.72;;;13.34;98.59
55263;BME280;41125;48.752;9.168;2023-08-06T02:31:22;96034.47;;;13.33;98.28
55263;BME280;41125;48.752;9.168;2023-08-06T02:31:53;96042.16;;;13.31;98.72
55263;BME280;41125;48.752;9.168;2023-08-06T02:32:24;96044.41;;;13.29;98.92
55263;BME280;41125;48.752;9.168;2023-08-06T02:32:56;96031.28;;;13.31;98.99
55263;BME280;41125;48.752;9.168;2023-08-06T02:33:27;96030.00;;;13.29;99.21
55263;BME280;41125;48.752;9.168;2023-08-06T02:34:00;96026.81;;;13.27;98.84
55263;BME280;41125;48.752;9.168;2023-08-06T02:34:32;96023.94;;;13.23;98.73
55263;BME280;41125;48.752;9.168;2023-08-06T02:35:04;96025.53;;;13.24;99.05
55263;BME280;41125;48.752;9.168;2023-08-06T02:35:35;96028.59;;;13.23;99.13
55263;BME280;41125;48.752;9.168;2023-08-06T02:36:07;96026.00;;;13.26;99.13
55263;BME280;41125;48.752;9.168;2023-08-06T02:36:38;96028.72;;;13.26;99.31
55263;BME280;41125;48.752;9.168;2023-08-06T02:37:09;96024.41;;;13.25;99.24
55263;BME280;41125;48.752;9.168;2023-08-06T02:37:40;96024.75;;;13.24;99.44
55263;BME280;41125;48.752;9.168;2023-08-06T02:38:12;96027.47;;;13.24;99.07
55263;BME280;41125;48.752;9.168;2023-08-06T02:38:43;96026.19;;;13.21;98.94
55263;BME280;41125;48.752;9.168;2023-08-06T02:39:14;96026.19;;;13.21;98.59
55263;BME280;41125;48.752;9.168;2023-08-06T02:39:46;96019.16;;;13.20;98.65
55263;BME280;41125;48.752;9.168;2023-08-06T02:40:17;96033.91;;;13.19;98.90
55263;BME280;41125;48.752;9.168;2023-08-06T02:40:48;96029.13;;;13.16;98.92
55263;BME280;41125;48.752;9.168;2023-08-06T02:41:23;96023.69;;;13.16;99.32
55263;BME280;41125;48.752;9.168;2023-08-06T02:41:54;96020.16;;;13.16;99.49
55263;BME280;41125;48.752;9.168;2023-08-06T02:42:25;96025.41;;;13.21;99.25
55263;BME280;41125;48.752;9.168;2023-08-06T02:42:57;96024.59;;;13.20;98.36
55263;BME280;41125;48.752;9.168;2023-08-06T02:43:28;96028.44;;;13.19;98.63
55263;BME280;41125;48.752;9.168;2023-08-06T02:44:00;96025.25;;;13.17;99.28
55263;BME280;41125;48.752;9.168;2023-08-06T02:44:31;96032.97;;;13.15;99.20
55263;BME280;41125;48.752;9.168;2023-08-06T02:45:04;96022.72;;;13.12;99.40
55263;BME280;41125;48.752;9.168;2023-08-06T02:45:35;96013.44;;;13.13;99.30
55263;BME280;41125;48.752;9.168;2023-08-06T02:46:06;96017.28;;;13.12;98.96
55263;BME280;41125;48.752;9.168;2023-08-06T02:46:38;96015.69;;;13.11;99.17
55263;BME280;41125;48.752;9.168;2023-08-06T02:47:09;96015.69;;;13.11;99.62
55263;BME280;41125;48.752;9.168;2023-08-06T02:47:40;96018.41;;;13.11;99.83
55263;BME280;41125;48.752;9.168;2023-08-06T02:48:12;96019.53;;;13.10;99.41
55263;BME280;41125;48.752;9.168;2023-08-06T02:48:43;96014.09;;;13.10;99.18
55263;BME280;41125;48.752;9.168;2023-08-06T02:49:15;96020.31;;;13.11;99.59
55263;BME280;41125;48.752;9.168;2023-08-06T02:49:47;96017.28;;;13.12;99.64
55263;BME280;41125;48.752;9.168;2023-08-06T02:50:20;96015.03;;;13.14;99.24
55263;BME280;41125;48.752;9.168;2023-08-06T02:50:52;96016.63;;;13.15;98.97
55263;BME280;41125;48.752;9.168;2023-08-06T02:51:27;96015.16;;;13.18;99.00
55263;BME280;41125;48.752;9.168;2023-08-06T02:51:59;96019.81;;;13.17;98.31
55263;BME280;41125;48.752;9.168;2023-08-06T02:52:30;96015.03;;;13.14;97.86
55263;BME280;41125;48.752;9.168;2023-08-06T02:53:01;96011.62;;;13.17;98.13
55263;BME280;41125;48.752;9.168;2023-08-06T02:53:33;96011.16;;;13.15;98.47
55263;BME280;41125;48.752;9.168;2023-08-06T02:54:04;96009.56;;;13.14;98.30
55263;BME280;41125;48.752;9.168;2023-08-06T02:54:38;96011.03;;;13.12;98.20
55263;BME280;41125;48.752;9.168;2023-08-06T02:55:10;96009.09;;;13.12;98.40
55263;BME280;41125;48.752;9.168;2023-08-06T02:55:48;95999.34;;;13.11;98.09
55263;BME280;41125;48.752;9.168;2023-08-06T02:56:20;95995.94;;;13.14;97.70
55263;BME280;41125;48.752;9.168;2023-08-06T02:56:52;96004.63;;;13.16;97.47
55263;BME280;41125;48.752;9.168;2023-08-06T02:57:23;95999.63;;;13.18;97.72
55263;BME280;41125;48.752;9.168;2023-08-06T02:57:54;95998.03;;;13.17;97.11